Terminal Aerodrome Forecast
Issued by NWS

Home | Current Version | Previous Version | Text Only | Print | Product List | Glossary Off
Versions: 1 2 3 4 5 6 7 8 9 10 11 12 13 14 15

006
FTUS43 KICT 222326
TAFSLN
TAF
KSLN 222326Z 2300/2324 12006KT P6SM -TSRA SCT070CB
     FM230200 03010KT P6SM VCTS SCT070CB
     FM230600 05010KT P6SM SCT250=

USA.gov is the U.S. government's official web portal to all federal, state and local government web resources and services.